Time;durP1;ratioP1;P1;durP2;ratioP2;P2;SDS_P1;SDS_P2;PMS_P1;PMS_P2;Temp;Humidity;BMP_temperature;BMP_pressure;BME280_temperature;BME280_humidity;BME280_pressure;Samples;Min_cycle;Max_cycle;Signal;HPM_P1;HPM_P2
2021/01/28 09:04:27;;;;;;;1.20;0.60;;;10.50;99.90;;;;;;3229410;23;20341;-71
2021/01/28 09:06:53;;;;;;;0.50;0.40;;;10.50;99.90;;;;;;5055308;28;20204;-72
2021/01/28 09:09:23;;;;;;;0.90;0.60;;;10.50;99.90;;;;;;5055334;28;20227;-71
2021/01/28 09:11:50;;;;;;;0.67;0.50;;;10.50;99.90;;;;;;5034793;28;20308;-71
2021/01/28 09:14:29;;;;;;;1.70;0.50;;;10.60;99.90;;;;;;5033152;28;20208;-72
2021/01/28 09:16:59;;;;;;;0.70;0.43;;;10.60;99.90;;;;;;5020677;28;20202;-73
2021/01/28 09:19:28;;;;;;;2.63;0.70;;;10.60;99.90;;;;;;5024079;28;20205;-71
2021/01/28 09:21:58;;;;;;;0.73;0.50;;;10.60;99.90;;;;;;5021659;28;20213;-73
2021/01/28 09:24:33;;;;;;;0.77;0.50;;;10.70;99.90;;;;;;5032138;28;20335;-75
2021/01/28 09:27:17;;;;;;;0.73;0.50;;;10.70;99.90;;;;;;5028123;28;20209;-75
2021/01/28 09:29:45;;;;;;;0.80;0.40;;;10.70;99.90;;;;;;5013182;28;20272;-74
2021/01/28 09:32:13;;;;;;;0.40;0.37;;;10.70;99.90;;;;;;5021045;28;20309;-74
2021/01/28 09:34:41;;;;;;;0.80;0.60;;;10.90;99.90;;;;;;5023440;28;20652;-73
2021/01/28 09:37:14;;;;;;;0.80;0.60;;;10.90;99.90;;;;;;5029309;28;20614;-73
2021/01/28 09:39:42;;;;;;;2.17;0.53;;;10.90;99.90;;;;;;5034502;28;20663;-72
2021/01/28 09:42:21;;;;;;;1.57;0.60;;;11.00;99.90;;;;;;5034034;28;20204;-75
2021/01/28 09:44:49;;;;;;;0.80;0.60;;;11.00;99.90;;;;;;5023816;28;20205;-72
2021/01/28 09:47:21;;;;;;;0.70;0.50;;;11.10;99.90;;;;;;5017062;28;20218;-72
2021/01/28 09:49:50;;;;;;;1.20;0.60;;;11.10;99.90;;;;;;5014430;28;20225;-71
2021/01/28 09:52:22;;;;;;;1.10;0.50;;;11.20;99.90;;;;;;5030835;28;20229;-74
2021/01/28 09:54:53;;;;;;;1.03;0.50;;;11.20;99.90;;;;;;5033541;28;20234;-71
2021/01/28 09:57:20;;;;;;;0.43;0.33;;;11.30;99.90;;;;;;5025513;28;20207;-71
2021/01/28 09:59:47;;;;;;;0.40;0.40;;;11.30;99.90;;;;;;5014513;28;20229;-70
2021/01/28 10:02:18;;;;;;;1.13;0.40;;;11.20;99.90;;;;;;5031010;28;20212;-74
2021/01/28 10:04:45;;;;;;;2.07;0.40;;;11.20;99.90;;;;;;5015867;28;20663;-74
2021/01/28 10:07:13;;;;;;;1.47;0.47;;;11.20;99.90;;;;;;5032293;28;20209;-70
2021/01/28 10:09:40;;;;;;;0.67;0.50;;;11.30;99.90;;;;;;5020611;28;20267;-72
2021/01/28 10:12:07;;;;;;;0.43;0.40;;;11.30;99.90;;;;;;5028339;28;20258;-75
2021/01/28 10:14:33;;;;;;;0.80;0.60;;;11.40;99.90;;;;;;5028539;28;20208;-71
2021/01/28 10:16:59;;;;;;;0.80;0.50;;;11.40;99.90;;;;;;5032698;28;20564;-72
2021/01/28 10:19:26;;;;;;;1.30;0.50;;;11.40;99.90;;;;;;5032235;28;20201;-72
2021/01/28 10:21:52;;;;;;;0.73;0.50;;;11.30;99.90;;;;;;5032572;28;20205;-71
2021/01/28 10:24:19;;;;;;;0.90;0.50;;;11.30;99.90;;;;;;5019620;28;20217;-74
2021/01/28 10:26:45;;;;;;;2.33;0.70;;;11.20;99.90;;;;;;5011800;28;20210;-75
2021/01/28 10:29:12;;;;;;;1.80;0.83;;;11.30;99.90;;;;;;5029524;28;20209;-72
2021/01/28 10:31:38;;;;;;;1.00;0.70;;;11.30;99.90;;;;;;5032873;28;20615;-73
2021/01/28 10:34:05;;;;;;;0.90;0.67;;;11.40;99.90;;;;;;5028568;28;20294;-78
2021/01/28 10:36:31;;;;;;;0.97;0.70;;;11.30;99.90;;;;;;5026408;28;20209;-76
2021/01/28 10:38:57;;;;;;;0.67;0.60;;;11.40;99.90;;;;;;5032694;28;20209;-74
2021/01/28 10:41:28;;;;;;;1.43;0.60;;;11.30;99.90;;;;;;5030609;28;20239;-74
2021/01/28 10:43:55;;;;;;;1.00;0.60;;;11.30;99.90;;;;;;5031803;28;20255;-79
2021/01/28 10:46:21;;;;;;;0.80;0.60;;;11.30;99.90;;;;;;5032195;28;20212;-75
2021/01/28 10:48:48;;;;;;;1.00;0.70;;;11.30;99.90;;;;;;5016629;28;20217;-72
2021/01/28 10:51:14;;;;;;;1.13;0.63;;;11.40;99.90;;;;;;5030271;28;20347;-79
2021/01/28 10:53:40;;;;;;;1.63;0.70;;;11.40;99.90;;;;;;5030964;28;20236;-75
2021/01/28 10:56:07;;;;;;;1.33;0.80;;;11.60;99.90;;;;;;5028590;28;20201;-76
2021/01/28 10:58:35;;;;;;;0.90;0.73;;;11.60;99.90;;;;;;5019026;28;20205;-77
2021/01/28 11:01:01;;;;;;;1.47;0.80;;;11.60;99.90;;;;;;5016780;28;20567;-75
2021/01/28 11:03:27;;;;;;;0.77;0.50;;;11.60;99.90;;;;;;5030838;28;20263;-73
2021/01/28 11:05:53;;;;;;;1.37;0.70;;;11.60;99.90;;;;;;5031820;28;20217;-75
2021/01/28 11:08:20;;;;;;;5.67;0.73;;;11.60;99.90;;;;;;5019633;28;20202;-75
2021/01/28 11:10:46;;;;;;;0.90;0.70;;;11.60;99.90;;;;;;5011094;28;20226;-77
2021/01/28 11:13:14;;;;;;;1.53;0.70;;;11.60;99.90;;;;;;5030102;28;20243;-76
2021/01/28 11:15:41;;;;;;;2.73;0.77;;;11.60;99.90;;;;;;5022382;28;20334;-73
2021/01/28 11:18:09;;;;;;;2.10;0.70;;;11.60;99.90;;;;;;5026882;28;20208;-74
2021/01/28 11:20:35;;;;;;;1.20;0.60;;;11.60;99.90;;;;;;5031990;28;20233;-78
2021/01/28 11:23:02;;;;;;;1.53;0.70;;;11.60;99.90;;;;;;5030833;28;20643;-74
2021/01/28 11:25:28;;;;;;;1.37;0.90;;;11.70;99.90;;;;;;5010662;28;20609;-75
2021/01/28 11:27:56;;;;;;;1.03;0.67;;;11.70;99.90;;;;;;5012134;28;20217;-75
2021/01/28 11:30:24;;;;;;;1.80;0.90;;;11.70;99.90;;;;;;5013378;28;20229;-77
2021/01/28 11:32:51;;;;;;;1.60;0.70;;;11.60;99.90;;;;;;5011170;28;20237;-75
2021/01/28 11:35:21;;;;;;;2.00;1.20;;;11.60;99.90;;;;;;5032682;28;20204;-74
2021/01/28 11:37:48;;;;;;;2.00;1.13;;;11.60;99.90;;;;;;5033023;28;20200;-74
2021/01/28 11:40:16;;;;;;;1.83;1.30;;;11.60;99.90;;;;;;5031493;28;20612;-79
2021/01/28 11:42:42;;;;;;;2.13;1.10;;;11.60;99.90;;;;;;5032107;28;20211;-76
2021/01/28 11:45:10;;;;;;;3.80;1.17;;;11.60;99.90;;;;;;5031050;28;20707;-75
2021/01/28 11:47:37;;;;;;;1.30;1.00;;;11.60;99.90;;;;;;5031004;28;20209;-75
2021/01/28 11:50:05;;;;;;;1.63;1.23;;;11.70;99.90;;;;;;5030774;28;20224;-75
2021/01/28 11:52:31;;;;;;;1.63;1.00;;;11.80;99.90;;;;;;5030955;28;20224;-75
2021/01/28 11:54:58;;;;;;;3.40;1.10;;;11.80;99.90;;;;;;5031355;28;20220;-76
2021/01/28 11:57:24;;;;;;;1.57;1.00;;;11.80;99.90;;;;;;5031141;28;20210;-76
2021/01/28 11:59:50;;;;;;;1.73;0.97;;;11.90;99.90;;;;;;5032616;28;20729;-83
2021/01/28 12:02:16;;;;;;;4.83;1.33;;;12.00;99.90;;;;;;5032815;28;20212;-76
2021/01/28 12:04:43;;;;;;;3.13;1.40;;;12.00;99.90;;;;;;5032753;28;20564;-76
2021/01/28 12:07:10;;;;;;;3.03;1.10;;;12.00;99.90;;;;;;5033026;28;20205;-75
2021/01/28 12:09:36;;;;;;;2.27;1.00;;;12.00;99.90;;;;;;5032859;28;20235;-75
2021/01/28 12:12:03;;;;;;;3.73;1.43;;;12.00;99.90;;;;;;5032645;28;20614;-84
2021/01/28 12:14:29;;;;;;;1.83;0.90;;;12.10;99.90;;;;;;5032636;28;20209;-82
2021/01/28 12:16:55;;;;;;;1.60;1.00;;;12.10;99.90;;;;;;5032739;28;20266;-76
2021/01/28 12:19:21;;;;;;;1.50;1.07;;;12.00;99.90;;;;;;5032663;28;20204;-84
2021/01/28 12:21:49;;;;;;;1.50;0.90;;;12.00;99.90;;;;;;5032886;28;20208;-74
2021/01/28 12:24:16;;;;;;;2.10;1.27;;;11.90;99.90;;;;;;5032501;28;20761;-75
2021/01/28 12:26:42;;;;;;;2.10;0.93;;;11.90;99.90;;;;;;5032648;28;20212;-75
2021/01/28 12:29:08;;;;;;;2.90;1.13;;;11.80;99.90;;;;;;5032829;28;20606;-85
2021/01/28 12:31:34;;;;;;;1.97;1.03;;;11.70;99.90;;;;;;5032819;28;20228;-75
2021/01/28 12:34:01;;;;;;;1.10;1.00;;;11.80;99.90;;;;;;5032777;28;20229;-85
2021/01/28 12:36:27;;;;;;;3.93;1.57;;;11.80;99.90;;;;;;5032709;28;20597;-78
2021/01/28 12:38:53;;;;;;;1.80;1.10;;;11.80;99.90;;;;;;5028537;28;20603;-76
2021/01/28 12:41:21;;;;;;;3.40;1.43;;;11.90;99.90;;;;;;5025220;28;20236;-79
2021/01/28 12:43:47;;;;;;;2.87;1.47;;;11.90;99.90;;;;;;5019434;28;20694;-82
2021/01/28 12:46:14;;;;;;;1.53;1.10;;;12.10;99.90;;;;;;5022212;28;20309;-75
2021/01/28 12:48:40;;;;;;;2.37;0.90;;;12.10;99.90;;;;;;5025358;28;20209;-80
2021/01/28 12:51:06;;;;;;;2.70;0.93;;;12.10;99.90;;;;;;5027662;28;20226;-78
2021/01/28 12:53:34;;;;;;;1.83;1.10;;;12.00;99.90;;;;;;5021897;28;20630;-75
2021/01/28 12:56:00;;;;;;;2.17;0.90;;;12.10;99.90;;;;;;5022357;28;20213;-78
2021/01/28 12:58:28;;;;;;;2.17;1.23;;;12.10;99.90;;;;;;5024221;28;20209;-88
2021/01/28 13:00:54;;;;;;;2.03;0.70;;;12.10;99.90;;;;;;5033293;28;20575;-82
2021/01/28 13:03:20;;;;;;;3.77;1.03;;;12.10;99.90;;;;;;5025556;28;20212;-82
2021/01/28 13:05:46;;;;;;;1.37;0.90;;;12.00;99.90;;;;;;5033979;28;20209;-71
2021/01/28 13:08:13;;;;;;;5.53;0.70;;;11.90;99.90;;;;;;5025004;28;20563;-74
2021/01/28 13:10:39;;;;;;;4.00;0.93;;;11.90;99.90;;;;;;5022085;28;20249;-75
2021/01/28 13:13:05;;;;;;;3.13;0.70;;;11.90;99.90;;;;;;5016199;28;20238;-77
2021/01/28 13:15:33;;;;;;;2.37;0.87;;;11.90;99.90;;;;;;5015961;28;20545;-73
2021/01/28 13:18:00;;;;;;;1.63;0.80;;;11.90;99.90;;;;;;5015646;28;20240;-76
2021/01/28 13:20:28;;;;;;;2.83;0.80;;;11.90;99.90;;;;;;5015684;28;20356;-75
2021/01/28 13:22:54;;;;;;;2.43;0.50;;;11.90;99.90;;;;;;5015787;28;20206;-75
2021/01/28 13:25:21;;;;;;;3.03;0.90;;;11.90;99.90;;;;;;5016424;28;20205;-71
2021/01/28 13:27:47;;;;;;;1.67;1.30;;;11.90;99.90;;;;;;5015674;28;20209;-71
2021/01/28 13:30:16;;;;;;;0.83;0.60;;;11.90;99.90;;;;;;5015947;28;20229;-74
2021/01/28 13:32:43;;;;;;;1.40;0.50;;;11.90;99.90;;;;;;5015479;28;20700;-71
2021/01/28 13:35:13;;;;;;;0.90;0.60;;;11.80;99.90;;;;;;5015508;28;20213;-71
2021/01/28 13:37:41;;;;;;;0.60;0.50;;;11.80;99.90;;;;;;5015457;28;20279;-71
2021/01/28 13:40:08;;;;;;;2.77;0.80;;;11.80;99.90;;;;;;5015643;28;20229;-70
2021/01/28 13:42:35;;;;;;;1.10;0.53;;;11.70;99.90;;;;;;5015652;28;20205;-70
2021/01/28 13:45:02;;;;;;;1.47;0.60;;;11.70;99.90;;;;;;5015520;28;20213;-70
2021/01/28 13:47:28;;;;;;;3.97;1.43;;;11.70;99.90;;;;;;5015434;28;20233;-70
2021/01/28 13:49:55;;;;;;;4.57;0.90;;;11.80;99.90;;;;;;5015071;28;20232;-70
2021/01/28 13:52:22;;;;;;;3.07;0.80;;;11.70;99.90;;;;;;5015117;28;20206;-70
2021/01/28 13:54:48;;;;;;;1.27;0.70;;;11.70;99.90;;;;;;5015192;28;20712;-70
2021/01/28 13:57:14;;;;;;;3.03;1.00;;;11.70;99.90;;;;;;5015400;28;20217;-70
2021/01/28 13:59:41;;;;;;;2.73;0.93;;;11.70;99.90;;;;;;5013961;28;20722;-70
2021/01/28 14:02:07;;;;;;;1.63;0.70;;;11.60;99.90;;;;;;5015053;28;20213;-70
2021/01/28 14:04:34;;;;;;;3.53;0.80;;;11.70;99.90;;;;;;5014549;28;20217;-70
2021/01/28 14:07:01;;;;;;;2.50;1.03;;;11.70;99.90;;;;;;5015156;28;20216;-70
2021/01/28 14:09:28;;;;;;;1.63;0.90;;;11.60;99.90;;;;;;5015071;28;20210;-70
2021/01/28 14:11:54;;;;;;;4.00;0.93;;;11.60;99.90;;;;;;5015222;28;20217;-70
2021/01/28 14:14:21;;;;;;;1.43;0.80;;;11.60;99.90;;;;;;5015031;28;20233;-70
2021/01/28 14:16:47;;;;;;;1.27;0.70;;;11.60;99.90;;;;;;5014680;28;20218;-70
2021/01/28 14:19:13;;;;;;;3.27;0.90;;;11.60;99.90;;;;;;5014377;28;20217;-70
2021/01/28 14:21:40;;;;;;;4.37;1.23;;;11.60;99.90;;;;;;5014848;28;20252;-70
2021/01/28 14:24:08;;;;;;;4.00;1.00;;;11.60;99.90;;;;;;5014512;28;20596;-70
2021/01/28 14:26:34;;;;;;;2.10;1.10;;;11.60;99.90;;;;;;5014587;28;20217;-70
2021/01/28 14:29:00;;;;;;;2.93;0.97;;;11.60;99.90;;;;;;5014305;28;20201;-70
2021/01/28 14:31:26;;;;;;;2.50;0.90;;;11.70;99.90;;;;;;5014870;28;20226;-70
2021/01/28 14:33:53;;;;;;;3.60;0.90;;;11.60;99.90;;;;;;5014204;28;20240;-70
2021/01/28 14:36:19;;;;;;;2.20;0.87;;;11.40;99.90;;;;;;5014775;28;20239;-70
2021/01/28 14:38:45;;;;;;;2.37;0.70;;;11.40;99.90;;;;;;5014510;28;20209;-70
2021/01/28 14:41:12;;;;;;;6.10;1.00;;;11.40;99.90;;;;;;5014355;28;20233;-70
2021/01/28 14:43:39;;;;;;;4.53;0.90;;;11.40;99.90;;;;;;5014415;28;20255;-70
2021/01/28 14:46:05;;;;;;;2.10;0.87;;;11.30;99.90;;;;;;5014254;28;20210;-70
2021/01/28 14:48:32;;;;;;;5.37;1.10;;;11.20;99.90;;;;;;5013963;28;20201;-69
2021/01/28 14:50:58;;;;;;;4.97;0.70;;;11.20;99.90;;;;;;5014370;28;20222;-69
2021/01/28 14:53:24;;;;;;;4.70;1.20;;;11.30;99.90;;;;;;5014232;28;20584;-69
2021/01/28 14:55:50;;;;;;;3.17;0.90;;;11.40;99.90;;;;;;5014417;28;20213;-69
2021/01/28 14:58:18;;;;;;;3.37;0.67;;;11.40;99.90;;;;;;5014555;28;20216;-69
2021/01/28 15:00:44;;;;;;;3.17;0.90;;;11.40;99.90;;;;;;5014525;28;20226;-69
2021/01/28 15:03:10;;;;;;;6.07;0.90;;;11.50;99.90;;;;;;5013505;28;20259;-68
2021/01/28 15:05:36;;;;;;;5.07;0.83;;;11.50;99.90;;;;;;5013812;28;20205;-69
2021/01/28 15:08:03;;;;;;;2.07;0.63;;;11.60;99.90;;;;;;5014161;28;20202;-69
2021/01/28 15:10:30;;;;;;;4.93;0.97;;;11.50;99.90;;;;;;5013754;28;20226;-69
2021/01/28 15:12:56;;;;;;;7.23;0.73;;;11.40;99.90;;;;;;5013760;28;20229;-69
2021/01/28 15:15:23;;;;;;;6.03;1.17;;;11.40;99.90;;;;;;5013710;28;20228;-69
2021/01/28 15:17:49;;;;;;;2.83;0.83;;;11.40;99.90;;;;;;5013756;28;20688;-69
2021/01/28 15:20:18;;;;;;;7.03;0.90;;;11.40;99.90;;;;;;5013791;28;20229;-69
2021/01/28 15:22:44;;;;;;;4.03;0.87;;;11.50;99.90;;;;;;5013803;28;20205;-68
2021/01/28 15:25:10;;;;;;;2.70;0.80;;;11.40;99.90;;;;;;5013626;28;20213;-69
2021/01/28 15:27:37;;;;;;;4.17;1.27;;;11.40;99.90;;;;;;5013672;28;20213;-68
2021/01/28 15:30:05;;;;;;;4.40;1.00;;;11.40;99.90;;;;;;5013514;28;20221;-69
2021/01/28 15:32:32;;;;;;;3.00;1.27;;;11.30;99.90;;;;;;5013589;28;20670;-68
2021/01/28 15:34:58;;;;;;;3.77;0.80;;;11.30;99.90;;;;;;5013757;28;20276;-68
2021/01/28 15:37:24;;;;;;;6.83;0.67;;;11.40;99.90;;;;;;5013646;28;20205;-69
2021/01/28 15:39:51;;;;;;;5.17;1.60;;;11.40;99.90;;;;;;5013309;28;20230;-69
2021/01/28 15:42:17;;;;;;;5.03;1.00;;;11.40;99.90;;;;;;5013158;28;20216;-69
2021/01/28 15:44:43;;;;;;;5.23;0.83;;;11.40;99.90;;;;;;5013280;28;20205;-69
2021/01/28 15:47:09;;;;;;;4.93;1.03;;;11.30;99.90;;;;;;5013810;28;20217;-69
2021/01/28 15:49:36;;;;;;;3.70;1.40;;;11.30;99.90;;;;;;5013226;28;20206;-69
2021/01/28 15:52:03;;;;;;;4.00;0.77;;;11.20;99.90;;;;;;5015284;28;20209;-68
2021/01/28 15:54:29;;;;;;;3.27;0.93;;;11.20;99.90;;;;;;5022838;28;20241;-69
2021/01/28 15:56:56;;;;;;;2.83;0.73;;;11.20;99.90;;;;;;5023323;28;20204;-67
2021/01/28 15:59:22;;;;;;;2.63;0.93;;;11.20;99.90;;;;;;5012814;28;20202;-69
2021/01/28 16:01:48;;;;;;;5.00;1.10;;;11.20;99.90;;;;;;5013425;28;20213;-68
2021/01/28 16:04:15;;;;;;;5.23;1.00;;;11.10;99.90;;;;;;5013068;28;20557;-68
2021/01/28 16:06:42;;;;;;;8.50;1.97;;;11.10;99.90;;;;;;5013055;28;20217;-67
2021/01/28 16:09:08;;;;;;;4.73;0.80;;;11.10;99.90;;;;;;5013048;28;20205;-68
2021/01/28 16:11:34;;;;;;;6.23;0.80;;;11.10;99.90;;;;;;5013141;28;20700;-69
2021/01/28 16:14:00;;;;;;;6.30;0.80;;;11.10;99.90;;;;;;5012968;28;20296;-68
2021/01/28 16:16:27;;;;;;;2.53;0.63;;;11.10;99.90;;;;;;5013157;28;20206;-71
2021/01/28 16:18:53;;;;;;;4.50;0.70;;;11.00;99.90;;;;;;5012775;28;20217;-67
2021/01/28 16:21:19;;;;;;;7.40;1.13;;;10.90;99.90;;;;;;5022703;28;20228;-66
2021/01/28 16:23:47;;;;;;;7.10;1.13;;;11.00;99.90;;;;;;5034976;28;20270;-70
2021/01/28 16:26:13;;;;;;;6.23;1.20;;;11.00;99.90;;;;;;5036018;28;20663;-70
2021/01/28 16:28:39;;;;;;;3.50;1.43;;;11.10;99.90;;;;;;5036222;28;20263;-70
2021/01/28 16:31:06;;;;;;;3.83;0.80;;;11.10;99.90;;;;;;5035463;28;20646;-67
2021/01/28 16:33:32;;;;;;;8.50;1.40;;;11.10;99.90;;;;;;5035993;28;20714;-72
2021/01/28 16:35:58;;;;;;;7.20;1.07;;;11.10;99.90;;;;;;5036427;28;20208;-67
2021/01/28 16:38:25;;;;;;;7.30;0.97;;;11.10;99.90;;;;;;5036640;28;20201;-70
2021/01/28 16:40:52;;;;;;;7.83;0.93;;;11.20;99.90;;;;;;5036176;28;20221;-67
2021/01/28 16:43:18;;;;;;;5.83;1.43;;;11.30;99.90;;;;;;5036032;28;20205;-68
2021/01/28 16:45:44;;;;;;;4.03;1.27;;;11.30;99.90;;;;;;5036083;28;20231;-68
2021/01/28 16:48:14;;;;;;;5.67;1.23;;;11.20;99.90;;;;;;5035962;28;20656;-67
2021/01/28 16:50:43;;;;;;;6.30;0.93;;;11.30;99.90;;;;;;5031134;28;20851;-68
2021/01/28 16:53:09;;;;;;;6.90;1.13;;;11.30;99.90;;;;;;5033947;28;20591;-71
2021/01/28 16:55:35;;;;;;;2.37;0.67;;;11.30;99.90;;;;;;5034333;28;20208;-73
2021/01/28 16:58:03;;;;;;;8.87;1.10;;;11.30;99.90;;;;;;5034200;28;20598;-73
2021/01/28 17:00:29;;;;;;;2.87;1.23;;;11.20;99.90;;;;;;5033797;28;20232;-72
2021/01/28 17:02:55;;;;;;;7.17;1.23;;;11.30;99.90;;;;;;5033954;28;20286;-71
2021/01/28 17:05:22;;;;;;;4.17;0.73;;;11.30;99.90;;;;;;5033755;28;20216;-70
2021/01/28 17:07:50;;;;;;;4.77;1.03;;;11.40;99.90;;;;;;5033831;28;20212;-72
2021/01/28 17:10:18;;;;;;;4.80;1.30;;;11.40;99.90;;;;;;5033341;28;20229;-74
2021/01/28 17:12:44;;;;;;;4.27;1.00;;;11.30;99.90;;;;;;5034036;28;20244;-73
2021/01/28 17:15:14;;;;;;;5.93;1.17;;;11.40;99.90;;;;;;5033253;28;20266;-70
2021/01/28 17:17:42;;;;;;;3.53;1.00;;;11.50;99.90;;;;;;5017838;28;20210;-73
2021/01/28 17:20:09;;;;;;;4.90;1.17;;;11.60;99.90;;;;;;5019487;28;20227;-72
2021/01/28 17:22:35;;;;;;;6.87;1.97;;;11.50;99.90;;;;;;5032667;28;20217;-73
2021/01/28 17:25:02;;;;;;;5.50;1.23;;;11.60;99.90;;;;;;5032822;28;20743;-69
2021/01/28 17:27:28;;;;;;;8.70;1.30;;;11.60;99.90;;;;;;5031726;28;20211;-72
2021/01/28 17:29:54;;;;;;;8.53;1.30;;;11.50;99.90;;;;;;5018236;28;20307;-70
2021/01/28 17:32:21;;;;;;;5.40;1.13;;;11.40;99.90;;;;;;5028994;28;20216;-68
2021/01/28 17:34:48;;;;;;;4.33;1.67;;;11.50;99.90;;;;;;5031537;28;20626;-70
2021/01/28 17:37:15;;;;;;;5.57;1.40;;;11.50;99.90;;;;;;5025798;28;20616;-73
2021/01/28 17:39:41;;;;;;;6.93;1.33;;;11.60;99.90;;;;;;5020676;28;20205;-72
2021/01/28 17:42:07;;;;;;;7.77;1.23;;;11.60;99.90;;;;;;5030918;28;20209;-73
2021/01/28 17:44:34;;;;;;;9.00;1.83;;;11.60;99.90;;;;;;5027892;28;20217;-73
2021/01/28 17:47:00;;;;;;;9.20;1.60;;;11.60;99.90;;;;;;5011315;28;20210;-72
2021/01/28 17:49:27;;;;;;;3.30;1.23;;;11.60;99.90;;;;;;5014114;28;20756;-72
2021/01/28 17:51:53;;;;;;;9.93;1.60;;;11.50;99.90;;;;;;5032496;28;20671;-71
2021/01/28 17:54:20;;;;;;;4.57;1.33;;;11.50;99.90;;;;;;5032832;28;20642;-71
2021/01/28 17:56:46;;;;;;;5.77;1.33;;;11.60;99.90;;;;;;5032200;28;20271;-68
2021/01/28 17:59:12;;;;;;;10.27;1.53;;;11.60;99.90;;;;;;5028902;28;20209;-69
2021/01/28 18:01:39;;;;;;;8.43;1.60;;;11.50;99.90;;;;;;5027499;28;20230;-75
2021/01/28 18:04:07;;;;;;;8.13;1.83;;;11.50;99.90;;;;;;5011801;28;20621;-71
2021/01/28 18:06:34;;;;;;;4.40;1.23;;;11.50;99.90;;;;;;5012602;28;20876;-73
2021/01/28 18:09:01;;;;;;;9.47;1.80;;;11.50;99.90;;;;;;5013469;28;20763;-69
2021/01/28 18:11:27;;;;;;;6.20;1.20;;;11.50;99.90;;;;;;5032150;28;20232;-68
2021/01/28 18:13:53;;;;;;;14.10;1.47;;;11.50;99.90;;;;;;5031525;28;20619;-75
2021/01/28 18:16:20;;;;;;;9.80;1.50;;;11.40;99.90;;;;;;5030934;28;20254;-69
2021/01/28 18:18:46;;;;;;;9.97;1.27;;;11.50;99.90;;;;;;5031382;28;20216;-68
2021/01/28 18:21:12;;;;;;;7.60;1.17;;;11.50;99.90;;;;;;5030775;28;20243;-70
2021/01/28 18:23:39;;;;;;;12.83;1.70;;;11.40;99.90;;;;;;5032521;28;20211;-69
2021/01/28 18:26:05;;;;;;;4.13;1.47;;;11.40;99.90;;;;;;5031281;28;20667;-77
2021/01/28 18:28:32;;;;;;;10.30;1.50;;;11.40;99.90;;;;;;5033962;28;20201;-73
2021/01/28 18:30:58;;;;;;;6.43;1.20;;;11.40;99.90;;;;;;5034184;28;20248;-73
2021/01/28 18:33:24;;;;;;;4.27;1.30;;;11.40;99.90;;;;;;5034149;28;20237;-73
2021/01/28 18:35:50;;;;;;;6.07;1.37;;;11.40;99.90;;;;;;5034006;28;20263;-76
2021/01/28 18:38:17;;;;;;;12.17;1.77;;;11.50;99.90;;;;;;5034344;28;20262;-74
2021/01/28 18:40:44;;;;;;;6.70;1.70;;;11.40;99.90;;;;;;5033811;28;20228;-73
2021/01/28 18:43:10;;;;;;;8.57;1.67;;;11.30;99.90;;;;;;5033630;28;20212;-74
2021/01/28 18:45:36;;;;;;;11.77;1.53;;;11.30;99.90;;;;;;5033158;28;20216;-72
2021/01/28 18:48:02;;;;;;;5.97;1.43;;;11.10;99.90;;;;;;5034082;28;20224;-73
2021/01/28 18:50:29;;;;;;;10.73;1.70;;;11.10;99.90;;;;;;5034021;28;20225;-78
2021/01/28 18:52:55;;;;;;;5.47;1.50;;;11.10;99.90;;;;;;5033518;28;20229;-79
2021/01/28 18:55:23;;;;;;;7.43;1.73;;;11.00;99.90;;;;;;5033561;28;20209;-76
2021/01/28 18:57:51;;;;;;;8.17;1.60;;;11.00;99.90;;;;;;5033503;28;20296;-73
2021/01/28 19:00:19;;;;;;;9.23;1.87;;;11.00;99.90;;;;;;5033459;28;20227;-73
2021/01/28 19:02:46;;;;;;;10.57;1.87;;;11.00;99.90;;;;;;5033612;28;20232;-77
2021/01/28 19:05:13;;;;;;;7.90;2.50;;;10.90;99.90;;;;;;5033358;28;20603;-73
2021/01/28 19:07:40;;;;;;;10.57;1.83;;;10.90;99.90;;;;;;5033787;28;20566;-78
2021/01/28 19:10:08;;;;;;;7.33;1.53;;;10.80;99.90;;;;;;5033632;28;20236;-73
2021/01/28 19:12:35;;;;;;;11.80;2.03;;;10.80;99.90;;;;;;5033651;28;20232;-74
2021/01/28 19:15:03;;;;;;;13.20;1.77;;;10.80;99.90;;;;;;5033202;28;20228;-73
2021/01/28 19:17:29;;;;;;;6.77;1.40;;;10.70;99.90;;;;;;5033709;28;20262;-79
2021/01/28 19:19:56;;;;;;;10.03;2.03;;;10.70;99.90;;;;;;5033342;28;20282;-74
2021/01/28 19:22:22;;;;;;;6.57;1.60;;;10.60;99.90;;;;;;5032259;28;20684;-73
2021/01/28 19:24:48;;;;;;;13.63;2.00;;;10.60;99.90;;;;;;5023460;28;20205;-80
2021/01/28 19:27:14;;;;;;;8.00;1.50;;;10.60;99.90;;;;;;5021359;28;20264;-74
2021/01/28 19:29:40;;;;;;;7.33;1.77;;;10.50;99.90;;;;;;5020832;28;20302;-73
2021/01/28 19:32:07;;;;;;;10.37;1.57;;;10.40;99.90;;;;;;5007630;28;20217;-75
2021/01/28 19:34:34;;;;;;;4.10;1.20;;;10.40;99.90;;;;;;5012226;28;20712;-74
2021/01/28 19:37:00;;;;;;;7.40;1.87;;;10.40;99.90;;;;;;5013265;28;20209;-74
2021/01/28 19:39:26;;;;;;;7.90;1.77;;;10.40;99.90;;;;;;5012122;28;20213;-74
2021/01/28 19:41:54;;;;;;;12.47;1.77;;;10.30;99.90;;;;;;5013127;28;20213;-71
2021/01/28 19:44:22;;;;;;;8.00;1.57;;;10.10;99.90;;;;;;5012669;28;20201;-72
2021/01/28 19:46:48;;;;;;;11.93;1.40;;;10.10;99.90;;;;;;5012672;28;20253;-71
2021/01/28 19:49:15;;;;;;;5.27;1.37;;;10.10;99.90;;;;;;5012601;28;20219;-74
2021/01/28 19:51:42;;;;;;;7.10;2.33;;;10.20;99.90;;;;;;5012811;28;20229;-72
2021/01/28 19:54:09;;;;;;;7.90;1.57;;;10.20;99.90;;;;;;5012529;28;20631;-71
2021/01/28 19:56:35;;;;;;;7.43;2.00;;;10.20;99.90;;;;;;5011995;28;20318;-72
2021/01/28 19:59:01;;;;;;;5.20;2.20;;;10.30;99.90;;;;;;5012190;28;20213;-73
2021/01/28 20:01:28;;;;;;;11.13;2.33;;;10.30;99.90;;;;;;5030561;28;20233;-71
2021/01/28 20:03:54;;;;;;;4.93;1.60;;;10.40;99.90;;;;;;5032216;28;20213;-74
2021/01/28 20:06:21;;;;;;;10.00;1.37;;;10.50;99.90;;;;;;5032335;28;20211;-70
2021/01/28 20:08:47;;;;;;;10.07;1.80;;;10.40;99.90;;;;;;5032361;28;20205;-72
2021/01/28 20:11:13;;;;;;;7.57;1.40;;;10.40;99.90;;;;;;5032296;28;20225;-71
2021/01/28 20:13:40;;;;;;;12.43;2.07;;;10.50;99.90;;;;;;5031847;28;20706;-73
2021/01/28 20:16:07;;;;;;;8.00;2.00;;;10.50;99.90;;;;;;5032092;28;20200;-73
2021/01/28 20:18:33;;;;;;;8.33;2.70;;;10.50;99.90;;;;;;5031692;28;20219;-72
2021/01/28 20:21:02;;;;;;;6.10;2.10;;;10.50;99.90;;;;;;5029425;28;20224;-71
2021/01/28 20:23:29;;;;;;;3.17;1.40;;;10.60;99.90;;;;;;5032587;28;20205;-73
2021/01/28 20:25:55;;;;;;;11.20;2.00;;;10.70;99.90;;;;;;5032277;28;20209;-74
2021/01/28 20:28:21;;;;;;;12.93;2.83;;;10.70;99.90;;;;;;5032011;28;20205;-72
2021/01/28 20:30:47;;;;;;;8.10;1.90;;;10.90;99.90;;;;;;5032124;28;20221;-72
2021/01/28 20:33:14;;;;;;;8.03;1.60;;;11.00;99.90;;;;;;5032107;28;20279;-70
2021/01/28 20:35:42;;;;;;;13.13;1.80;;;11.00;99.90;;;;;;5032104;28;20212;-70
2021/01/28 20:38:10;;;;;;;9.90;2.17;;;10.90;99.90;;;;;;5031751;28;20239;-73
2021/01/28 20:40:38;;;;;;;11.67;1.87;;;10.90;99.90;;;;;;5031730;28;20235;-70
2021/01/28 20:43:06;;;;;;;11.40;1.60;;;11.10;99.90;;;;;;5032254;28;20355;-71
2021/01/28 20:45:33;;;;;;;7.97;1.60;;;11.10;99.90;;;;;;5032012;28;20671;-72
2021/01/28 20:48:00;;;;;;;7.97;1.60;;;11.00;99.90;;;;;;5032380;28;20205;-74
2021/01/28 20:50:27;;;;;;;7.30;2.00;;;11.00;99.90;;;;;;5031381;28;20259;-74
2021/01/28 20:52:53;;;;;;;11.63;2.20;;;11.00;99.90;;;;;;5032008;28;20209;-72
2021/01/28 20:55:19;;;;;;;7.47;2.13;;;11.10;99.90;;;;;;5032527;28;20742;-72
2021/01/28 20:57:46;;;;;;;8.90;1.67;;;11.10;99.90;;;;;;5032489;28;20204;-71
2021/01/28 21:00:15;;;;;;;8.37;1.53;;;11.10;99.90;;;;;;5032237;28;20225;-73
2021/01/28 21:02:42;;;;;;;8.27;1.83;;;11.10;99.90;;;;;;5032868;28;20209;-72
2021/01/28 21:05:09;;;;;;;8.43;2.47;;;11.10;99.90;;;;;;5031961;28;20332;-71
2021/01/28 21:07:35;;;;;;;8.87;2.10;;;11.10;99.90;;;;;;5032139;28;20209;-72
2021/01/28 21:10:03;;;;;;;10.50;1.73;;;11.00;99.90;;;;;;5035392;28;20224;-74
2021/01/28 21:12:30;;;;;;;3.70;1.50;;;11.00;99.90;;;;;;5035610;28;20216;-72
2021/01/28 21:14:57;;;;;;;10.67;2.17;;;11.10;99.90;;;;;;5035286;28;20734;-75
2021/01/28 21:17:23;;;;;;;4.43;1.80;;;11.20;99.90;;;;;;5035280;28;20205;-74
2021/01/28 21:19:49;;;;;;;3.80;1.77;;;11.20;99.90;;;;;;5035290;28;20225;-74
2021/01/28 21:22:16;;;;;;;12.13;2.20;;;11.10;99.90;;;;;;5035092;28;20205;-73
2021/01/28 21:24:42;;;;;;;7.23;1.60;;;11.10;99.90;;;;;;5035287;28;20205;-75
2021/01/28 21:27:08;;;;;;;6.23;2.10;;;11.00;99.90;;;;;;5035389;28;20258;-74
2021/01/28 21:29:35;;;;;;;5.63;1.90;;;11.10;99.90;;;;;;5034993;28;20205;-74
2021/01/28 21:32:03;;;;;;;8.20;1.90;;;11.10;99.90;;;;;;5035150;28;20682;-71
2021/01/28 21:34:33;;;;;;;3.93;1.33;;;11.10;99.90;;;;;;5035152;28;20270;-73
2021/01/28 21:37:00;;;;;;;4.77;1.00;;;11.20;99.90;;;;;;5035438;28;20205;-71
2021/01/28 21:39:26;;;;;;;2.17;1.17;;;11.20;99.90;;;;;;5035428;28;20262;-75
2021/01/28 21:41:53;;;;;;;5.03;1.40;;;11.20;99.90;;;;;;5035299;28;20294;-73
2021/01/28 21:44:19;;;;;;;3.37;1.47;;;11.30;99.90;;;;;;5035392;28;20205;-71
2021/01/28 21:46:45;;;;;;;2.13;1.10;;;11.30;99.90;;;;;;5035325;28;20568;-75